createdAt,value
2022-12-18T05:01:16.118Z,28.50
2022-12-18T05:03:47.907Z,29.03
2022-12-18T05:06:19.611Z,27.23
2022-12-18T05:08:51.362Z,25.70
2022-12-18T05:11:23.023Z,26.60
2022-12-18T05:13:54.702Z,25.50
2022-12-18T05:16:27.777Z,30.97
2022-12-18T05:18:59.467Z,27.23
2022-12-18T05:21:31.134Z,27.83
2022-12-18T05:24:02.855Z,27.37
2022-12-18T05:26:34.526Z,22.80
2022-12-18T05:29:06.154Z,26.20
2022-12-18T05:31:39.769Z,24.63
2022-12-18T05:34:11.612Z,24.47
2022-12-18T05:36:44.497Z,24.20
2022-12-18T05:39:16.288Z,27.40
2022-12-18T05:41:47.972Z,24.13
2022-12-18T05:44:19.617Z,30.00
2022-12-18T05:46:52.648Z,24.33
2022-12-18T05:49:24.400Z,25.00
2022-12-18T05:51:56.072Z,28.00
2022-12-18T05:54:28.016Z,27.50
2022-12-18T05:56:59.671Z,24.70
2022-12-18T05:59:31.323Z,23.33
2022-12-18T06:02:04.467Z,25.73
2022-12-18T06:04:36.242Z,23.43
2022-12-18T06:07:07.934Z,26.87
2022-12-18T06:09:39.579Z,25.37
2022-12-18T06:12:11.247Z,29.03
2022-12-18T06:14:42.892Z,29.00
2022-12-18T06:17:16.028Z,29.47
2022-12-18T06:19:47.708Z,27.83
2022-12-18T06:22:19.365Z,28.30
2022-12-18T06:24:51.059Z,28.53
2022-12-18T06:27:22.718Z,29.90
2022-12-18T06:29:54.480Z,28.80
2022-12-18T06:32:27.604Z,28.40
2022-12-18T06:34:59.242Z,27.23
2022-12-18T06:37:31.872Z,27.67
2022-12-18T06:40:03.987Z,29.17
2022-12-18T06:42:35.684Z,29.20
2022-12-18T06:45:08.554Z,28.03
2022-12-18T06:47:41.564Z,27.30
2022-12-18T06:50:13.390Z,28.60
2022-12-18T06:52:45.062Z,27.70
2022-12-18T06:55:16.843Z,26.63
2022-12-18T06:57:48.532Z,26.70
2022-12-18T07:00:20.171Z,26.50
2022-12-18T07:02:53.293Z,30.03
2022-12-18T07:05:24.994Z,27.83
2022-12-18T07:07:56.652Z,24.00
2022-12-18T07:10:28.291Z,26.77
2022-12-18T07:12:59.986Z,26.10
2022-12-18T07:15:31.668Z,25.70
2022-12-18T07:18:04.942Z,27.83
2022-12-18T07:20:36.617Z,24.93
2022-12-18T07:23:08.298Z,27.40
2022-12-18T07:25:39.998Z,27.30
2022-12-18T07:28:15.754Z,33.07
2022-12-18T07:30:49.096Z,27.63
2022-12-18T07:33:22.126Z,28.57
2022-12-18T07:35:53.802Z,32.10
2022-12-18T07:38:25.462Z,32.67
2022-12-18T07:41:01.291Z,30.17
2022-12-18T07:43:32.979Z,27.67
2022-12-18T07:46:05.083Z,28.57
2022-12-18T07:48:38.134Z,30.23
2022-12-18T07:51:09.890Z,31.70
2022-12-18T07:53:41.960Z,28.93
2022-12-18T07:56:30.893Z,29.40
2022-12-18T07:59:03.142Z,30.10
2022-12-18T08:01:34.912Z,30.13
2022-12-18T08:04:08.040Z,28.40
2022-12-18T08:06:42.628Z,29.70
2022-12-18T08:09:18.005Z,28.43
2022-12-18T08:11:49.665Z,29.37
2022-12-18T08:14:21.334Z,29.93
2022-12-18T08:16:53.087Z,30.70
2022-12-18T08:19:26.372Z,28.93
2022-12-18T08:21:58.077Z,27.37
2022-12-18T08:24:29.706Z,29.10
2022-12-18T08:27:31.370Z,28.60
2022-12-18T08:29:53.117Z,26.13
2022-12-18T08:32:24.916Z,29.37
2022-12-18T08:34:57.961Z,30.07
2022-12-18T08:37:29.622Z,28.27
2022-12-18T08:40:01.264Z,26.50
2022-12-18T08:42:32.899Z,27.17
2022-12-18T08:45:05.100Z,31.37
2022-12-18T08:47:36.770Z,23.83
2022-12-18T08:50:10.269Z,28.70
2022-12-18T08:52:41.926Z,23.43
2022-12-18T08:55:13.556Z,26.27
2022-12-18T08:57:48.556Z,26.37
2022-12-18T09:00:20.328Z,25.20
2022-12-18T09:02:52.096Z,25.70
2022-12-18T09:05:25.166Z,27.97
2022-12-18T09:07:56.826Z,28.87
2022-12-18T09:10:28.468Z,28.27
2022-12-18T09:13:00.181Z,23.80
2022-12-18T09:15:31.803Z,24.00
2022-12-18T09:18:03.614Z,26.17
2022-12-18T09:20:36.615Z,26.30
2022-12-18T09:23:08.401Z,28.03
2022-12-18T09:25:40.069Z,32.80
2022-12-18T09:28:12.652Z,23.97
2022-12-18T09:30:45.542Z,31.07
2022-12-18T09:33:17.278Z,27.13
2022-12-18T09:35:50.511Z,22.60
2022-12-18T09:38:22.157Z,26.80
2022-12-18T09:40:54.670Z,25.67
2022-12-18T09:43:29.096Z,22.03
2022-12-18T09:46:04.209Z,26.03
2022-12-18T09:48:37.281Z,29.53
2022-12-18T09:51:14.248Z,22.97
2022-12-18T09:53:47.584Z,19.90
2022-12-18T09:56:20.716Z,24.10
2022-12-18T09:58:55.995Z,20.67
2022-12-18T10:01:37.662Z,23.13
2022-12-18T10:04:10.949Z,25.67
2022-12-18T10:06:47.442Z,25.47
2022-12-18T10:09:24.490Z,24.43
2022-12-18T10:12:00.443Z,23.00
2022-12-18T10:14:35.240Z,26.40
2022-12-18T10:17:13.224Z,24.80
2022-12-18T10:19:47.840Z,27.47
2022-12-18T10:22:28.101Z,24.90
2022-12-18T10:25:02.657Z,19.57
2022-12-18T10:27:34.295Z,24.17
2022-12-18T10:30:09.191Z,25.33
2022-12-18T10:32:40.862Z,19.80
2022-12-18T10:35:17.582Z,27.30
2022-12-18T10:38:05.321Z,24.30
2022-12-18T10:40:49.978Z,21.53
2022-12-18T10:43:23.466Z,26.03
2022-12-18T10:46:00.855Z,25.70
2022-12-18T10:48:32.860Z,28.23
2022-12-18T10:51:12.821Z,26.10
2022-12-18T10:53:52.428Z,21.97
2022-12-18T10:56:24.778Z,24.73
2022-12-18T10:58:57.983Z,24.80
2022-12-18T11:01:30.061Z,26.47
2022-12-18T11:04:03.707Z,22.20
2022-12-18T11:06:35.398Z,28.97
2022-12-18T11:09:20.589Z,24.37
2022-12-18T11:11:52.835Z,25.97
2022-12-18T11:14:25.680Z,27.60
2022-12-18T11:17:27.723Z,25.00
2022-12-18T11:19:53.568Z,34.67
2022-12-18T11:22:26.166Z,27.83
2022-12-18T11:27:53.493Z,22.03
2022-12-18T11:30:26.656Z,25.10
2022-12-18T11:33:01.709Z,23.90
2022-12-18T11:35:38.169Z,26.53
2022-12-18T11:38:15.909Z,31.07
2022-12-18T11:40:52.710Z,27.13
2022-12-18T11:43:27.567Z,28.93
2022-12-18T11:46:01.811Z,22.90
2022-12-18T11:48:34.921Z,24.17
2022-12-18T11:51:09.605Z,25.10
2022-12-18T11:53:41.247Z,27.93
2022-12-18T11:56:26.225Z,26.27
2022-12-18T11:59:00.892Z,23.10
2022-12-18T12:01:43.887Z,26.53
2022-12-18T12:04:25.131Z,26.80
2022-12-18T12:07:03.048Z,25.60
2022-12-18T12:09:37.563Z,26.07
2022-12-18T12:12:18.864Z,25.07
2022-12-18T12:14:53.601Z,29.33
2022-12-18T12:17:30.351Z,26.40
2022-12-18T12:20:08.686Z,28.37
2022-12-18T12:22:43.712Z,23.63
2022-12-18T12:25:26.624Z,30.27
2022-12-18T12:28:06.338Z,26.93
2022-12-18T12:30:42.954Z,25.87
2022-12-18T12:33:21.056Z,23.63
2022-12-18T12:35:53.879Z,25.27
2022-12-18T12:38:27.363Z,28.03
2022-12-18T12:41:03.112Z,25.87
2022-12-18T12:46:32.107Z,26.27
2022-12-18T12:49:04.463Z,29.27
2022-12-18T12:51:36.796Z,24.00
2022-12-18T12:54:13.975Z,25.17
2022-12-18T12:56:49.056Z,26.67
2022-12-18T12:59:24.989Z,29.87
2022-12-18T13:02:00.245Z,29.90
2022-12-18T13:04:34.184Z,26.20
2022-12-18T13:07:07.491Z,29.27
2022-12-18T13:10:17.132Z,30.30
2022-12-18T13:12:57.357Z,23.67
2022-12-18T13:13:43.017Z,26.90
2022-12-18T13:15:32.761Z,26.03
2022-12-18T13:18:14.517Z,28.43
2022-12-18T13:20:52.662Z,28.60
2022-12-18T13:23:29.690Z,31.13
2022-12-18T13:26:30.186Z,34.03
2022-12-18T13:29:02.142Z,34.93
2022-12-18T13:32:10.349Z,26.17
2022-12-18T13:34:41.995Z,32.17
2022-12-18T13:37:42.656Z,28.47
2022-12-18T13:40:53.844Z,28.33
2022-12-18T13:43:34.111Z,29.93
2022-12-18T13:46:17.760Z,34.43
2022-12-18T13:48:54.874Z,27.43
2022-12-18T13:51:26.592Z,29.43
2022-12-18T13:53:59.177Z,32.87
2022-12-18T13:56:32.609Z,28.63
2022-12-18T13:59:06.978Z,30.47
2022-12-18T14:01:43.424Z,27.70
2022-12-18T14:04:20.649Z,30.13
2022-12-18T14:06:54.451Z,34.07
2022-12-18T14:09:27.966Z,27.13
2022-12-18T14:12:00.538Z,32.20
2022-12-18T14:14:33.837Z,30.63
2022-12-18T14:17:09.430Z,29.50
2022-12-18T14:19:45.158Z,34.67
2022-12-18T14:22:18.257Z,31.17
2022-12-18T14:25:05.489Z,33.80
2022-12-18T14:27:38.099Z,33.57
2022-12-18T14:30:24.885Z,34.37
2022-12-18T14:33:04.016Z,35.70
2022-12-18T14:35:36.476Z,36.37
2022-12-18T14:38:12.784Z,37.90
2022-12-18T14:40:44.408Z,34.17
2022-12-18T14:43:16.118Z,28.87
2022-12-18T14:45:49.349Z,34.37
2022-12-18T14:48:23.842Z,29.33
2022-12-18T14:51:00.809Z,33.67
2022-12-18T14:53:38.284Z,34.03
2022-12-18T14:56:18.038Z,30.73
2022-12-18T14:58:50.813Z,31.40
2022-12-18T15:01:26.135Z,30.90
2022-12-18T15:03:58.458Z,30.70
2022-12-18T15:06:32.473Z,30.80
2022-12-18T15:09:05.314Z,30.50
2022-12-18T15:11:45.060Z,32.40
2022-12-18T15:14:32.587Z,30.17
2022-12-18T15:17:06.938Z,33.93
2022-12-18T15:19:39.884Z,33.63
2022-12-18T15:22:19.319Z,33.37
2022-12-18T15:24:51.083Z,32.30
2022-12-18T15:27:29.225Z,36.13
2022-12-18T15:30:19.976Z,37.40
2022-12-18T15:32:53.152Z,31.50
2022-12-18T15:35:25.233Z,34.67
2022-12-18T15:37:56.872Z,32.87
2022-12-18T15:40:28.510Z,30.57
2022-12-18T15:43:00.150Z,33.57
2022-12-18T15:45:31.772Z,34.37
2022-12-18T15:48:09.168Z,39.03
2022-12-18T15:50:40.804Z,38.57
2022-12-18T15:53:12.465Z,35.73
2022-12-18T15:55:44.122Z,32.10
2022-12-18T15:58:15.782Z,33.77
2022-12-18T16:00:48.251Z,34.63
2022-12-18T16:03:21.336Z,34.57
2022-12-18T16:05:53.096Z,36.23
2022-12-18T16:08:25.937Z,39.43
2022-12-18T16:10:57.637Z,37.70
2022-12-18T16:13:29.300Z,39.60
2022-12-18T16:16:01.002Z,37.80
2022-12-18T16:18:34.068Z,37.33
2022-12-18T16:21:06.063Z,34.73
2022-12-18T16:23:37.913Z,39.70
2022-12-18T16:26:09.632Z,36.43
2022-12-18T16:28:46.720Z,40.67
2022-12-18T16:31:20.036Z,38.60
2022-12-18T16:34:13.172Z,37.53
2022-12-18T16:36:44.795Z,40.20
2022-12-18T16:39:16.568Z,40.57
2022-12-18T16:41:48.390Z,48.13
2022-12-18T16:44:20.147Z,38.83
2022-12-18T16:46:51.900Z,40.13
2022-12-18T16:49:25.072Z,44.07
2022-12-18T16:51:56.792Z,44.57
2022-12-18T16:54:28.452Z,43.13
2022-12-18T16:57:00.093Z,43.03
2022-12-18T16:59:31.757Z,38.27
2022-12-18T17:02:03.856Z,38.50
2022-12-18T17:04:37.279Z,41.70
2022-12-18T17:07:09.042Z,46.93
2022-12-18T17:09:40.674Z,44.77
2022-12-18T17:12:12.304Z,47.77
2022-12-18T17:14:43.988Z,55.87
2022-12-18T17:17:23.968Z,57.43
2022-12-18T17:19:57.293Z,41.93
2022-12-18T17:22:29.028Z,42.37
2022-12-18T17:25:00.692Z,52.22
2022-12-18T17:27:32.351Z,41.47
2022-12-18T17:30:04.905Z,40.03
2022-12-18T17:32:36.560Z,39.90
2022-12-18T17:35:09.870Z,44.23
2022-12-18T17:37:41.490Z,43.57
2022-12-18T17:40:13.164Z,45.13
2022-12-18T17:42:44.796Z,45.90
2022-12-18T17:45:16.509Z,38.57
2022-12-18T17:47:48.157Z,41.40
2022-12-18T17:50:21.134Z,43.77
2022-12-18T17:52:55.553Z,36.27
2022-12-18T17:55:27.433Z,45.33
2022-12-18T17:57:59.087Z,45.03
2022-12-18T18:00:30.795Z,46.23
2022-12-18T18:03:02.626Z,43.00
2022-12-18T18:05:35.768Z,46.87
2022-12-18T18:08:07.437Z,42.47
2022-12-18T18:10:39.413Z,44.23
2022-12-18T18:13:17.652Z,42.27
2022-12-18T18:15:55.777Z,47.33
2022-12-18T18:18:27.472Z,46.37
2022-12-18T18:21:03.472Z,49.53
2022-12-18T18:23:35.787Z,48.57
2022-12-18T18:26:08.588Z,45.00
2022-12-18T18:28:40.390Z,52.50
2022-12-18T18:31:13.991Z,47.57
2022-12-18T18:33:45.900Z,48.50
2022-12-18T18:36:18.926Z,44.53
2022-12-18T18:38:50.574Z,49.23
2022-12-18T18:41:22.238Z,45.13
2022-12-18T18:43:54.631Z,43.77
2022-12-18T18:46:26.420Z,46.33
2022-12-18T18:48:58.108Z,47.43
2022-12-18T18:51:34.850Z,45.37
2022-12-18T18:54:07.077Z,47.53
2022-12-18T18:57:11.743Z,47.37
2022-12-18T18:59:31.549Z,46.60
2022-12-18T19:02:04.337Z,47.17
2022-12-18T19:04:41.695Z,49.77
2022-12-18T19:07:29.880Z,49.63
2022-12-18T19:10:04.601Z,47.47
2022-12-18T19:12:37.005Z,43.53
2022-12-18T19:15:10.701Z,48.43
2022-12-18T19:17:47.582Z,47.27
2022-12-18T19:20:19.667Z,47.70
2022-12-18T19:22:55.354Z,46.13
2022-12-18T19:25:41.594Z,47.37
2022-12-18T19:28:21.620Z,43.23
2022-12-18T19:30:56.369Z,43.83
2022-12-18T19:33:43.096Z,41.57
2022-12-18T19:36:18.260Z,43.23
2022-12-18T19:38:51.788Z,43.67
2022-12-18T19:41:23.913Z,51.17
2022-12-18T19:43:57.206Z,54.50
2022-12-18T19:46:28.898Z,47.00
2022-12-18T19:49:00.647Z,52.53
2022-12-18T19:51:32.623Z,46.83
2022-12-18T19:54:05.843Z,47.00
2022-12-18T19:56:37.541Z,43.73
2022-12-18T19:59:09.551Z,50.73
2022-12-18T20:01:41.393Z,44.80
2022-12-18T20:04:13.271Z,48.37
2022-12-18T20:06:49.084Z,50.17
2022-12-18T20:09:22.334Z,51.80
2022-12-18T20:11:54.396Z,45.60
2022-12-18T20:14:26.244Z,49.20
2022-12-18T20:16:57.999Z,47.70
2022-12-18T20:19:32.007Z,46.83
2022-12-18T20:22:05.998Z,53.67
2022-12-18T20:24:38.989Z,51.10
2022-12-18T20:27:15.236Z,44.73
2022-12-18T20:29:48.852Z,52.00
2022-12-18T20:32:20.605Z,51.13
2022-12-18T20:34:52.463Z,43.10
2022-12-18T20:37:24.817Z,46.43
2022-12-18T20:39:58.481Z,50.83
2022-12-18T20:42:30.410Z,44.23
2022-12-18T20:45:02.078Z,44.33
2022-12-18T20:47:33.728Z,46.93
2022-12-18T20:50:06.160Z,46.60
2022-12-18T20:52:37.835Z,55.80
2022-12-18T20:55:11.013Z,52.47
2022-12-18T20:57:42.676Z,47.33
2022-12-18T21:00:14.832Z,48.07
2022-12-18T21:02:50.673Z,50.80
2022-12-18T21:05:22.362Z,45.33
2022-12-18T21:07:54.019Z,48.57
2022-12-18T21:10:26.986Z,52.10
2022-12-18T21:13:01.723Z,49.87
2022-12-18T21:15:36.203Z,50.37
2022-12-18T21:18:07.924Z,50.57
2022-12-18T21:20:39.875Z,45.10
2022-12-18T21:23:16.432Z,43.33
2022-12-18T21:25:55.838Z,47.93
2022-12-18T21:28:27.876Z,52.60
2022-12-18T21:30:59.669Z,51.43
2022-12-18T21:33:31.362Z,47.60
2022-12-18T21:36:04.017Z,48.97
2022-12-18T21:38:35.680Z,46.20
2022-12-18T21:41:09.570Z,51.87
2022-12-18T21:43:41.206Z,44.90
2022-12-18T21:46:12.950Z,47.23
2022-12-18T21:48:44.689Z,48.83
2022-12-18T21:51:16.361Z,51.03
2022-12-18T21:53:48.089Z,48.83
2022-12-18T21:56:22.768Z,53.80
2022-12-18T21:58:56.824Z,56.33
2022-12-18T22:01:33.408Z,53.53
2022-12-18T22:04:09.328Z,53.13
2022-12-18T22:06:41.009Z,52.30
2022-12-18T22:09:13.891Z,51.70
2022-12-18T22:11:46.964Z,57.30
2022-12-18T22:14:18.604Z,56.67
2022-12-18T22:16:50.316Z,55.03
2022-12-18T22:19:22.211Z,54.57
2022-12-18T22:21:53.942Z,54.80
2022-12-18T22:24:26.272Z,55.67
2022-12-18T22:27:01.663Z,58.77
2022-12-18T22:29:33.918Z,55.23
2022-12-18T22:32:07.386Z,53.37
2022-12-18T22:34:40.646Z,62.90
2022-12-18T22:37:12.420Z,55.90
2022-12-18T22:39:44.071Z,56.70
2022-12-18T22:42:17.498Z,49.57
2022-12-18T22:44:49.186Z,53.40
2022-12-18T22:47:23.349Z,56.23
2022-12-18T22:49:58.268Z,59.70
2022-12-18T22:52:29.955Z,56.70
2022-12-18T22:55:01.606Z,57.63
2022-12-18T22:57:34.648Z,54.50
